Time;durP1;ratioP1;P1;durP2;ratioP2;P2;SDS_P1;SDS_P2;PMS_P1;PMS_P2;Temp;Humidity;BMP_temperature;BMP_pressure;BME280_temperature;BME280_humidity;BME280_pressure;Samples;Min_cycle;Max_cycle;Signal;HPM_P1;HPM_P2
2024/02/28 00:00:45;;;;;;;30.63;10.90;;;;;;;;;;10429634;28;20380;-75
2024/02/28 00:05:48;;;;;;;26.67;11.35;;;;;;;;;;10427360;28;20049;-77
2024/02/28 00:10:50;;;;;;;31.40;12.38;;;;;;;;;;10428802;28;20069;-74
2024/02/28 00:15:54;;;;;;;27.35;11.35;;;;;;;;;;10434064;28;20118;-75
2024/02/28 00:20:57;;;;;;;28.30;11.68;;;;;;;;;;10429107;28;20588;-74
2024/02/28 00:25:59;;;;;;;32.38;11.63;;;;;;;;;;10435261;28;20077;-74
2024/02/28 00:31:04;;;;;;;26.45;10.98;;;;;;;;;;10435912;28;20077;-74
2024/02/28 00:36:06;;;;;;;;;;;;;;;;;;10430287;28;20041;-75
2024/02/28 00:41:09;;;;;;;25.27;10.13;;;;;;;;;;10429289;28;19921;-74
2024/02/28 00:46:13;;;;;;;29.25;10.48;;;;;;;;;;10429301;28;20037;-75
2024/02/28 00:51:15;;;;;;;30.63;11.80;;;;;;;;;;10436969;28;20471;-75
2024/02/28 00:56:18;;;;;;;29.35;10.70;;;;;;;;;;10431982;28;20065;-75
2024/02/28 01:01:22;;;;;;;27.60;11.18;;;;;;;;;;10432630;28;20119;-75
2024/02/28 01:06:25;;;;;;;29.73;11.38;;;;;;;;;;10427024;28;20174;-75
2024/02/28 01:11:28;;;;;;;31.05;11.77;;;;;;;;;;10422038;28;20410;-74
2024/02/28 01:16:32;;;;;;;31.33;11.43;;;;;;;;;;10425340;28;20133;-74
2024/02/28 01:21:34;;;;;;;26.50;11.38;;;;;;;;;;10428952;28;20068;-75
2024/02/28 01:26:37;;;;;;;30.90;12.55;;;;;;;;;;10436901;28;20041;-74
2024/02/28 01:31:41;;;;;;;32.10;12.30;;;;;;;;;;10431623;28;20130;-74
2024/02/28 01:36:44;;;;;;;30.73;12.15;;;;;;;;;;10423720;28;20072;-74
2024/02/28 01:41:57;;;;;;;31.92;12.25;;;;;;;;;;10426758;28;20400;-75
2024/02/28 01:47:03;;;;;;;29.90;12.23;;;;;;;;;;10430124;28;20065;-75
2024/02/28 01:52:05;;;;;;;30.45;11.88;;;;;;;;;;10427006;28;20102;-75
2024/02/28 01:57:08;;;;;;;31.02;12.23;;;;;;;;;;10430884;28;20047;-74
2024/02/28 02:02:12;;;;;;;30.35;11.45;;;;;;;;;;10423486;28;20183;-75
2024/02/28 02:07:15;;;;;;;31.02;11.93;;;;;;;;;;10425655;28;20064;-74
2024/02/28 02:12:17;;;;;;;29.65;12.05;;;;;;;;;;10434383;28;20034;-74
2024/02/28 02:17:21;;;;;;;27.63;12.48;;;;;;;;;;10439743;28;20106;-73
2024/02/28 02:22:24;;;;;;;32.17;12.73;;;;;;;;;;10446117;28;20403;-74
2024/02/28 02:27:28;;;;;;;35.13;12.55;;;;;;;;;;10434883;28;20134;-74
2024/02/28 02:32:30;;;;;;;35.08;12.90;;;;;;;;;;10443752;28;20520;-72
2024/02/28 02:37:33;;;;;;;31.90;12.57;;;;;;;;;;10439745;28;20395;-74
2024/02/28 02:42:38;;;;;;;29.95;12.10;;;;;;;;;;10431697;28;20040;-75
2024/02/28 02:47:40;;;;;;;33.80;12.68;;;;;;;;;;10430999;28;20060;-75
2024/02/28 02:52:43;;;;;;;27.33;11.68;;;;;;;;;;10433635;28;20041;-75
2024/02/28 02:57:47;;;;;;;33.80;12.38;;;;;;;;;;10433417;28;20037;-75
2024/02/28 03:02:50;;;;;;;33.05;12.57;;;;;;;;;;10434673;28;20124;-75
2024/02/28 03:07:52;;;;;;;37.42;12.93;;;;;;;;;;10434431;28;20075;-76
2024/02/28 03:12:57;;;;;;;34.42;12.93;;;;;;;;;;10426015;28;20139;-77
2024/02/28 03:18:00;;;;;;;33.90;12.73;;;;;;;;;;10434777;28;20053;-75
2024/02/28 03:23:02;;;;;;;35.78;13.27;;;;;;;;;;10431456;28;20051;-74
2024/02/28 03:28:06;;;;;;;34.35;13.02;;;;;;;;;;10433166;28;20429;-73
2024/02/28 03:33:09;;;;;;;;;;;;;;;;;;10431210;28;20451;-74
2024/02/28 03:38:12;;;;;;;33.72;12.50;;;;;;;;;;10422402;28;19933;-74
2024/02/28 03:43:16;;;;;;;37.25;13.23;;;;;;;;;;10431064;28;20053;-74
2024/02/28 03:48:19;;;;;;;27.80;11.38;;;;;;;;;;10428699;28;20131;-74
2024/02/28 03:53:22;;;;;;;32.05;11.65;;;;;;;;;;10426227;28;20052;-74
2024/02/28 03:58:26;;;;;;;37.35;12.82;;;;;;;;;;10427485;28;20143;-76
2024/02/28 04:03:28;;;;;;;;;;;;;;;;;;10436730;28;20205;-75
2024/02/28 04:08:31;;;;;;;38.75;12.65;;;;;;;;;;10430313;28;19925;-75
2024/02/28 04:13:35;;;;;;;37.92;13.93;;;;;;;;;;10430393;28;20127;-74
2024/02/28 04:18:38;;;;;;;34.40;13.50;;;;;;;;;;10432180;28;20130;-75
2024/02/28 04:23:43;;;;;;;31.93;12.37;;;;;;;;;;10432475;28;20056;-75
2024/02/28 04:28:47;;;;;;;38.83;13.65;;;;;;;;;;10430901;28;20044;-74
2024/02/28 04:33:50;;;;;;;;;;;;;;;;;;10433651;28;20048;-75
2024/02/28 04:38:53;;;;;;;39.60;13.88;;;;;;;;;;10437602;28;19935;-74
2024/02/28 04:43:57;;;;;;;36.78;13.18;;;;;;;;;;10431064;28;20064;-74
2024/02/28 04:49:00;;;;;;;40.28;13.70;;;;;;;;;;10429358;28;20041;-75
2024/02/28 04:54:02;;;;;;;39.15;13.25;;;;;;;;;;10428956;28;20048;-74
2024/02/28 04:59:06;;;;;;;31.30;12.70;;;;;;;;;;10429472;28;20135;-73
2024/02/28 05:04:09;;;;;;;37.22;13.18;;;;;;;;;;10422941;28;20510;-74
2024/02/28 05:09:12;;;;;;;40.35;14.27;;;;;;;;;;10424861;28;20753;-74
2024/02/28 05:14:16;;;;;;;35.67;13.45;;;;;;;;;;10426428;28;20037;-74
2024/02/28 05:19:19;;;;;;;;;;;;;;;;;;10431282;28;20410;-73
2024/02/28 05:24:22;;;;;;;41.08;13.73;;;;;;;;;;10428327;28;19928;-74
2024/02/28 05:29:26;;;;;;;42.28;13.73;;;;;;;;;;10431976;28;20502;-75
2024/02/28 05:34:28;;;;;;;;;;;;;;;;;;10430574;28;20157;-74
2024/02/28 05:39:31;;;;;;;37.92;13.23;;;;;;;;;;10432642;28;20023;-74
2024/02/28 05:44:35;;;;;;;46.72;14.48;;;;;;;;;;10429235;28;20521;-74
2024/02/28 05:49:38;;;;;;;35.70;13.35;;;;;;;;;;10425634;28;20041;-74
2024/02/28 05:54:41;;;;;;;40.55;13.48;;;;;;;;;;10424390;28;20050;-74
2024/02/28 05:59:45;;;;;;;;;;;;;;;;;;10424002;28;20475;-74
2024/02/28 06:04:49;;;;;;;38.22;14.32;;;;;;;;;;10423889;28;20121;-74
2024/02/28 06:09:52;;;;;;;40.33;14.38;;;;;;;;;;10430384;28;20552;-74
2024/02/28 06:14:54;;;;;;;40.90;14.60;;;;;;;;;;10423339;28;20041;-75
2024/02/28 06:19:58;;;;;;;43.45;13.75;;;;;;;;;;10425124;28;20098;-75
2024/02/28 06:25:01;;;;;;;40.13;14.43;;;;;;;;;;10422649;28;20464;-76
2024/02/28 06:30:04;;;;;;;42.42;13.93;;;;;;;;;;10425867;28;20118;-74
2024/02/28 06:35:09;;;;;;;41.00;14.55;;;;;;;;;;10424035;28;20053;-75
2024/02/28 06:40:12;;;;;;;38.38;14.48;;;;;;;;;;10427798;28;20041;-75
2024/02/28 06:45:15;;;;;;;38.63;14.02;;;;;;;;;;10429534;28;20095;-74
2024/02/28 06:50:19;;;;;;;46.63;16.33;;;;;;;;;;10430750;28;20047;-72
2024/02/28 06:55:23;;;;;;;46.38;15.23;;;;;;;;;;10425798;28;20132;-73
2024/02/28 07:00:25;;;;;;;42.72;14.95;;;;;;;;;;10426335;28;20053;-74
2024/02/28 07:05:28;;;;;;;45.42;14.00;;;;;;;;;;10433194;28;20546;-73
2024/02/28 07:10:32;;;;;;;49.15;16.45;;;;;;;;;;10436960;28;20598;-74
2024/02/28 07:15:35;;;;;;;45.97;16.08;;;;;;;;;;10427983;28;20067;-74
2024/02/28 07:20:38;;;;;;;40.55;15.43;;;;;;;;;;10437053;28;20049;-74
2024/02/28 07:25:42;;;;;;;47.92;15.32;;;;;;;;;;10434802;28;20453;-74
2024/02/28 07:30:46;;;;;;;50.78;17.20;;;;;;;;;;10435189;28;20522;-74
2024/02/28 07:35:49;;;;;;;54.05;16.52;;;;;;;;;;10429728;28;20052;-75
2024/02/28 07:40:53;;;;;;;50.42;16.83;;;;;;;;;;10431548;28;20124;-74
2024/02/28 07:45:56;;;;;;;45.55;15.15;;;;;;;;;;10430768;28;20130;-74
2024/02/28 07:50:59;;;;;;;49.22;17.17;;;;;;;;;;10434454;28;20095;-74
2024/02/28 07:56:03;;;;;;;45.15;15.13;;;;;;;;;;10430662;28;20049;-75
2024/02/28 08:01:05;;;;;;;;;;;;;;;;;;10430944;28;20126;-73
2024/02/28 08:06:08;;;;;;;47.42;16.83;;;;;;;;;;10434134;28;19927;-74
2024/02/28 08:11:13;;;;;;;52.67;16.55;;;;;;;;;;10434405;28;20115;-74
2024/02/28 08:16:15;;;;;;;48.55;14.63;;;;;;;;;;10431311;28;20045;-75
2024/02/28 08:21:19;;;;;;;50.00;16.02;;;;;;;;;;10432847;28;20430;-75
2024/02/28 08:26:23;;;;;;;55.45;17.55;;;;;;;;;;10424711;28;20052;-74
2024/02/28 08:31:26;;;;;;;51.50;16.75;;;;;;;;;;10427581;28;20088;-73
2024/02/28 08:36:29;;;;;;;53.35;17.15;;;;;;;;;;10422547;28;20122;-74
2024/02/28 08:41:34;;;;;;;49.00;17.02;;;;;;;;;;10437605;28;20563;-75
2024/02/28 08:46:37;;;;;;;55.45;18.10;;;;;;;;;;10429318;28;20095;-74
2024/02/28 08:51:40;;;;;;;50.60;16.83;;;;;;;;;;10425685;28;20159;-76
2024/02/28 08:56:44;;;;;;;54.83;17.35;;;;;;;;;;10436393;28;20457;-72
2024/02/28 09:01:58;;;;;;;46.40;16.65;;;;;;;;;;10432283;28;20029;-75
2024/02/28 09:07:00;;;;;;;49.80;17.30;;;;;;;;;;10432040;28;20156;-73
2024/02/28 09:12:05;;;;;;;51.08;16.38;;;;;;;;;;10422691;28;20034;-74
2024/02/28 09:17:07;;;;;;;48.58;15.88;;;;;;;;;;10436736;28;20052;-74
2024/02/28 09:22:10;;;;;;;50.17;18.60;;;;;;;;;;10424284;28;20064;-74
2024/02/28 09:27:14;;;;;;;48.20;17.58;;;;;;;;;;10427970;28;20553;-74
2024/02/28 09:32:18;;;;;;;;;;;;;;;;;;10433996;28;20103;-73
2024/02/28 09:37:22;;;;;;;46.58;16.42;;;;;;;;;;10423302;28;19935;-74
2024/02/28 09:42:26;;;;;;;54.33;17.50;;;;;;;;;;10431154;28;20056;-76
2024/02/28 09:47:30;;;;;;;44.15;15.98;;;;;;;;;;10427292;28;20040;-75
2024/02/28 09:52:33;;;;;;;38.53;13.98;;;;;;;;;;10443142;28;20466;-76
2024/02/28 09:57:39;;;;;;;25.10;9.63;;;;;;;;;;10424023;28;20072;-76
2024/02/28 10:02:44;;;;;;;41.78;15.82;;;;;;;;;;10432326;28;20044;-75
2024/02/28 10:07:47;;;;;;;38.00;13.30;;;;;;;;;;10432254;28;20045;-75
2024/02/28 10:12:51;;;;;;;39.27;14.27;;;;;;;;;;10434438;28;20086;-75
2024/02/28 10:17:54;;;;;;;44.05;16.02;;;;;;;;;;10429492;28;20112;-76
2024/02/28 10:22:57;;;;;;;47.38;16.48;;;;;;;;;;10423849;28;20501;-74
2024/02/28 10:28:01;;;;;;;44.35;16.55;;;;;;;;;;10427717;28;20081;-75
2024/02/28 10:33:04;;;;;;;44.47;15.77;;;;;;;;;;10429793;28;20045;-75
2024/02/28 10:38:07;;;;;;;44.88;15.73;;;;;;;;;;10441924;28;20049;-75
2024/02/28 10:43:11;;;;;;;44.90;15.65;;;;;;;;;;10438957;28;20123;-75
2024/02/28 10:48:15;;;;;;;48.00;15.73;;;;;;;;;;10441580;28;20040;-76
2024/02/28 10:53:21;;;;;;;44.97;15.23;;;;;;;;;;10433209;28;20042;-76
2024/02/28 10:58:26;;;;;;;48.13;15.88;;;;;;;;;;10432161;28;20071;-75
2024/02/28 11:03:28;;;;;;;46.10;15.98;;;;;;;;;;10443305;28;20486;-73
2024/02/28 11:08:31;;;;;;;40.95;15.27;;;;;;;;;;10452668;28;20491;-76
2024/02/28 11:13:35;;;;;;;43.20;15.93;;;;;;;;;;10431591;28;20044;-77
2024/02/28 11:18:48;;;;;;;41.35;15.52;;;;;;;;;;10435052;28;20123;-76
2024/02/28 11:23:51;;;;;;;41.55;15.82;;;;;;;;;;10437107;28;20116;-76
2024/02/28 11:28:55;;;;;;;40.85;15.30;;;;;;;;;;10433711;28;20120;-75
2024/02/28 11:33:57;;;;;;;40.63;15.05;;;;;;;;;;10429285;28;20041;-75
2024/02/28 11:39:01;;;;;;;38.35;15.25;;;;;;;;;;10437750;28;20053;-75
2024/02/28 11:44:05;;;;;;;39.22;14.00;;;;;;;;;;10431450;28;20113;-75
2024/02/28 11:49:07;;;;;;;;;;;;;;;;;;10429469;28;20064;-75
2024/02/28 11:54:11;;;;;;;42.63;15.77;;;;;;;;;;10427976;28;19932;-76
2024/02/28 11:59:15;;;;;;;47.13;17.20;;;;;;;;;;10435265;28;20507;-75
2024/02/28 12:04:17;;;;;;;;;;;;;;;;;;10433781;28;20120;-75
2024/02/28 12:09:20;;;;;;;40.78;15.18;;;;;;;;;;10430769;28;19929;-74
2024/02/28 12:14:37;;;;;;;45.78;15.40;;;;;;;;;;10427440;28;20064;-75
2024/02/28 12:19:40;;;;;;;48.17;16.13;;;;;;;;;;10428383;28;20047;-76
2024/02/28 12:24:42;;;;;;;41.10;14.50;;;;;;;;;;10433171;28;20052;-74
2024/02/28 12:29:46;;;;;;;42.72;15.02;;;;;;;;;;10428518;28;20049;-74
2024/02/28 12:34:49;;;;;;;42.80;15.75;;;;;;;;;;10425751;28;20048;-74
2024/02/28 12:39:52;;;;;;;47.58;17.50;;;;;;;;;;10429260;28;20072;-74
2024/02/28 12:44:56;;;;;;;44.30;16.40;;;;;;;;;;10429061;28;20044;-74
2024/02/28 12:49:59;;;;;;;41.78;15.50;;;;;;;;;;10429377;28;20148;-74
2024/02/28 12:55:02;;;;;;;47.17;15.80;;;;;;;;;;10428638;28;20040;-74
2024/02/28 13:00:08;;;;;;;43.40;16.48;;;;;;;;;;10430016;28;20049;-74
2024/02/28 13:05:10;;;;;;;41.13;14.68;;;;;;;;;;10426133;28;20038;-75
2024/02/28 13:10:13;;;;;;;43.20;15.48;;;;;;;;;;10425772;28;20053;-75
2024/02/28 13:15:17;;;;;;;41.33;16.10;;;;;;;;;;10431839;28;20073;-74
2024/02/28 13:20:20;;;;;;;37.28;14.80;;;;;;;;;;10423706;28;20049;-74
2024/02/28 13:25:23;;;;;;;40.57;15.33;;;;;;;;;;10426325;28;20383;-74
2024/02/28 13:30:27;;;;;;;38.83;14.85;;;;;;;;;;10425035;28;20110;-74
2024/02/28 13:35:30;;;;;;;;;;;;;;;;;;10422725;28;20048;-75
2024/02/28 13:40:33;;;;;;;40.67;14.68;;;;;;;;;;10430262;28;19920;-74
2024/02/28 13:45:41;;;;;;;39.65;14.93;;;;;;;;;;10425668;28;20068;-74
2024/02/28 13:50:46;;;;;;;41.63;14.45;;;;;;;;;;10428826;28;20147;-76
2024/02/28 13:55:50;;;;;;;44.28;14.93;;;;;;;;;;10423186;28;20076;-75
2024/02/28 14:00:55;;;;;;;35.13;13.75;;;;;;;;;;10426690;28;20049;-75
2024/02/28 14:05:59;;;;;;;35.58;13.30;;;;;;;;;;10420409;28;20121;-75
2024/02/28 14:11:01;;;;;;;36.70;14.05;;;;;;;;;;10435304;28;20048;-74
2024/02/28 14:16:05;;;;;;;36.90;14.00;;;;;;;;;;10428444;28;20033;-74
2024/02/28 14:21:10;;;;;;;42.15;14.23;;;;;;;;;;10429519;28;20134;-75
2024/02/28 14:26:13;;;;;;;36.38;14.60;;;;;;;;;;10422926;28;20551;-76
2024/02/28 14:31:17;;;;;;;35.42;12.80;;;;;;;;;;10425676;28;20048;-74
2024/02/28 14:36:20;;;;;;;;;;;;;;;;;;10424437;28;20375;-74
2024/02/28 14:41:23;;;;;;;38.97;15.50;;;;;;;;;;10421218;28;19924;-76
2024/02/28 14:46:28;;;;;;;39.22;14.52;;;;;;;;;;10424619;28;20513;-75
2024/02/28 14:51:32;;;;;;;37.08;13.52;;;;;;;;;;10424998;28;20077;-75
2024/02/28 14:56:36;;;;;;;36.22;13.25;;;;;;;;;;10425215;28;20091;-75
2024/02/28 15:01:40;;;;;;;36.80;14.85;;;;;;;;;;10428964;28;20045;-75
2024/02/28 15:06:42;;;;;;;;;;;;;;;;;;10430868;28;20061;-75
2024/02/28 15:11:45;;;;;;;37.20;13.50;;;;;;;;;;10426121;28;19959;-75
2024/02/28 15:16:49;;;;;;;34.38;14.00;;;;;;;;;;10432089;28;20497;-75
2024/02/28 15:21:52;;;;;;;;;;;;;;;;;;10430876;28;20040;-77
2024/02/28 15:26:54;;;;;;;35.72;11.90;;;;;;;;;;10431563;28;20531;-77
2024/02/28 15:31:58;;;;;;;40.42;15.70;;;;;;;;;;10434533;28;20337;-75
2024/02/28 15:37:01;;;;;;;34.90;13.18;;;;;;;;;;10433416;28;20037;-75
2024/02/28 15:42:04;;;;;;;37.63;12.70;;;;;;;;;;10431350;28;20037;-74
2024/02/28 15:47:09;;;;;;;34.22;12.55;;;;;;;;;;10432445;28;20088;-75
2024/02/28 15:52:12;;;;;;;37.42;13.48;;;;;;;;;;10430450;28;20059;-73
2024/02/28 15:57:16;;;;;;;33.90;12.57;;;;;;;;;;10428677;28;20091;-74
2024/02/28 16:02:20;;;;;;;37.83;12.55;;;;;;;;;;10432672;28;20556;-74
2024/02/28 16:07:23;;;;;;;31.10;11.80;;;;;;;;;;10426314;28;20371;-74
2024/02/28 16:12:27;;;;;;;37.55;12.20;;;;;;;;;;10433864;28;20045;-74
2024/02/28 16:17:31;;;;;;;31.98;11.38;;;;;;;;;;10432354;28;20467;-78
2024/02/28 16:22:34;;;;;;;36.25;11.70;;;;;;;;;;10424817;28;20055;-74
2024/02/28 16:27:38;;;;;;;33.80;11.98;;;;;;;;;;10429108;28;20340;-74
2024/02/28 16:32:42;;;;;;;32.40;12.40;;;;;;;;;;10431264;28;20042;-75
2024/02/28 16:37:47;;;;;;;36.92;12.32;;;;;;;;;;10426090;28;20116;-75
2024/02/28 16:42:49;;;;;;;;;;;;;;;;;;10430591;28;20814;-75
2024/02/28 16:47:53;;;;;;;36.10;11.63;;;;;;;;;;10426978;28;20057;-74
2024/02/28 16:52:55;;;;;;;36.92;11.85;;;;;;;;;;10427323;28;22254;-75
2024/02/28 16:57:59;;;;;;;30.35;10.27;;;;;;;;;;10436244;28;20041;-74
2024/02/28 17:03:04;;;;;;;31.23;10.33;;;;;;;;;;10422120;28;20512;-74
2024/02/28 17:08:07;;;;;;;36.90;12.05;;;;;;;;;;10428825;28;20373;-74
2024/02/28 17:13:10;;;;;;;29.25;9.88;;;;;;;;;;10430721;28;20053;-74
2024/02/28 17:18:17;;;;;;;34.55;11.30;;;;;;;;;;10427159;28;20049;-74
2024/02/28 17:23:19;;;;;;;28.27;9.20;;;;;;;;;;10425948;28;20140;-72
2024/02/28 17:28:22;;;;;;;36.67;12.52;;;;;;;;;;10432328;28;20783;-73
2024/02/28 17:33:26;;;;;;;32.47;11.52;;;;;;;;;;10427791;28;20527;-74
2024/02/28 17:38:29;;;;;;;;;;;;;;;;;;10430892;28;20044;-74
2024/02/28 17:43:31;;;;;;;34.20;10.68;;;;;;;;;;10426211;28;19929;-74
2024/02/28 17:48:37;;;;;;;37.00;12.57;;;;;;;;;;10426256;28;20069;-76
2024/02/28 17:53:40;;;;;;;35.72;12.57;;;;;;;;;;10417579;28;20072;-75
2024/02/28 17:58:43;;;;;;;37.78;12.18;;;;;;;;;;10419560;28;20099;-74
2024/02/28 18:03:48;;;;;;;34.60;11.27;;;;;;;;;;10426873;28;20044;-73
2024/02/28 18:08:50;;;;;;;;;;;;;;;;;;10428559;28;20052;-74
2024/02/28 18:13:53;;;;;;;26.98;8.73;;;;;;;;;;10429876;28;20431;-74
2024/02/28 18:18:57;;;;;;;37.25;10.45;;;;;;;;;;10428098;28;20045;-73
2024/02/28 18:24:00;;;;;;;39.08;12.65;;;;;;;;;;10426413;28;20045;-74
2024/02/28 18:29:03;;;;;;;35.13;11.43;;;;;;;;;;10429465;28;20532;-74
2024/02/28 18:34:08;;;;;;;35.40;11.80;;;;;;;;;;10433139;28;20119;-76
2024/02/28 18:39:12;;;;;;;35.15;11.10;;;;;;;;;;10425170;28;20461;-74
2024/02/28 18:44:14;;;;;;;36.60;12.27;;;;;;;;;;10429994;28;20102;-74
2024/02/28 18:49:19;;;;;;;36.50;12.63;;;;;;;;;;10426035;28;20423;-74
2024/02/28 18:54:23;;;;;;;39.78;12.30;;;;;;;;;;10428137;28;20422;-74
2024/02/28 18:59:26;;;;;;;37.28;11.80;;;;;;;;;;10432093;28;20053;-75
2024/02/28 19:04:30;;;;;;;37.42;12.40;;;;;;;;;;10433904;28;20135;-76
2024/02/28 19:09:33;;;;;;;37.67;12.38;;;;;;;;;;10433476;28;20175;-75
2024/02/28 19:14:37;;;;;;;39.42;12.07;;;;;;;;;;10426239;28;20025;-75
2024/02/28 19:19:41;;;;;;;37.67;12.43;;;;;;;;;;10439773;28;20065;-75
2024/02/28 19:24:44;;;;;;;35.70;11.55;;;;;;;;;;10442066;28;20437;-74
2024/02/28 19:29:47;;;;;;;32.08;10.18;;;;;;;;;;10441634;28;20069;-74
2024/02/28 19:34:54;;;;;;;34.30;11.48;;;;;;;;;;10437103;28;20064;-75
2024/02/28 19:40:07;;;;;;;38.08;12.43;;;;;;;;;;10443063;28;20057;-75
2024/02/28 19:45:11;;;;;;;41.53;11.65;;;;;;;;;;10435341;28;20106;-76
2024/02/28 19:50:15;;;;;;;40.60;12.50;;;;;;;;;;10434214;28;20066;-75
2024/02/28 19:55:17;;;;;;;38.22;11.60;;;;;;;;;;10435116;28;20107;-75
2024/02/28 20:00:22;;;;;;;39.92;12.75;;;;;;;;;;10435925;28;20041;-75
2024/02/28 20:05:26;;;;;;;37.58;12.18;;;;;;;;;;10440293;28;20461;-74
2024/02/28 20:10:29;;;;;;;;;;;;;;;;;;10437227;28;20136;-74
2024/02/28 20:15:35;;;;;;;31.83;9.75;;;;;;;;;;10440893;28;19920;-73
2024/02/28 20:20:39;;;;;;;35.65;11.75;;;;;;;;;;10429424;28;20468;-75
2024/02/28 20:25:42;;;;;;;35.22;11.68;;;;;;;;;;10439382;28;20033;-73
2024/02/28 20:30:45;;;;;;;36.47;10.65;;;;;;;;;;10436782;28;20050;-73
2024/02/28 20:35:50;;;;;;;38.42;12.52;;;;;;;;;;10438841;28;20140;-75
2024/02/28 20:40:52;;;;;;;40.85;12.00;;;;;;;;;;10439810;28;20099;-74
2024/02/28 20:45:55;;;;;;;40.35;12.85;;;;;;;;;;10434525;28;20458;-73
2024/02/28 20:51:00;;;;;;;37.92;11.57;;;;;;;;;;10435484;28;20052;-75
2024/02/28 20:56:03;;;;;;;41.80;13.10;;;;;;;;;;10432149;28;20124;-74
2024/02/28 21:01:06;;;;;;;37.80;12.85;;;;;;;;;;10427112;28;20045;-74
2024/02/28 21:06:12;;;;;;;36.58;11.77;;;;;;;;;;10433095;28;20043;-74
2024/02/28 21:11:15;;;;;;;37.63;11.65;;;;;;;;;;10433440;28;20084;-74
2024/02/28 21:16:18;;;;;;;35.53;12.45;;;;;;;;;;10431714;28;20052;-75
2024/02/28 21:21:25;;;;;;;36.65;11.85;;;;;;;;;;10433970;28;20054;-74
2024/02/28 21:26:29;;;;;;;40.97;13.27;;;;;;;;;;10428916;28;20482;-75
2024/02/28 21:31:32;;;;;;;35.30;11.83;;;;;;;;;;10428727;28;20132;-74
2024/02/28 21:36:36;;;;;;;38.63;13.25;;;;;;;;;;10431940;28;20529;-75
2024/02/28 21:41:40;;;;;;;43.67;13.95;;;;;;;;;;10431471;28;20135;-75
2024/02/28 21:46:43;;;;;;;44.30;12.77;;;;;;;;;;10427482;28;20033;-76
2024/02/28 21:51:48;;;;;;;36.53;12.18;;;;;;;;;;10429946;28;20064;-75
2024/02/28 21:56:50;;;;;;;;;;;;;;;;;;10426392;28;20041;-77
2024/02/28 22:01:53;;;;;;;37.25;11.32;;;;;;;;;;10427692;28;19924;-75
2024/02/28 22:06:57;;;;;;;41.35;12.88;;;;;;;;;;10430468;28;20036;-75
2024/02/28 22:11:59;;;;;;;;;;;;;;;;;;10429571;28;20542;-75
2024/02/28 22:17:02;;;;;;;36.67;10.00;;;;;;;;;;10430748;28;20038;-76
2024/02/28 22:22:07;;;;;;;44.72;12.90;;;;;;;;;;10426336;28;20384;-76
2024/02/28 22:27:10;;;;;;;38.58;11.32;;;;;;;;;;10427789;28;20034;-74
2024/02/28 22:32:12;;;;;;;37.75;12.25;;;;;;;;;;10437866;28;20040;-76
2024/02/28 22:37:17;;;;;;;35.72;12.00;;;;;;;;;;10434542;28;20040;-75
2024/02/28 22:42:19;;;;;;;36.17;10.70;;;;;;;;;;10441343;28;20134;-76
2024/02/28 22:47:23;;;;;;;38.30;11.50;;;;;;;;;;10438805;28;20053;-75
2024/02/28 22:52:30;;;;;;;38.50;12.80;;;;;;;;;;10434770;28;20315;-75
2024/02/28 22:57:33;;;;;;;37.13;11.32;;;;;;;;;;10440240;28;20041;-75
2024/02/28 23:02:36;;;;;;;39.47;12.45;;;;;;;;;;10435000;28;20087;-75
2024/02/28 23:07:40;;;;;;;34.35;11.63;;;;;;;;;;10430420;28;20191;-75
2024/02/28 23:12:43;;;;;;;41.00;12.75;;;;;;;;;;10435614;28;20053;-74
2024/02/28 23:17:46;;;;;;;34.38;11.27;;;;;;;;;;10434957;28;20459;-77
2024/02/28 23:22:50;;;;;;;39.50;12.03;;;;;;;;;;10428361;28;20037;-74
2024/02/28 23:27:54;;;;;;;;;;;;;;;;;;10434247;28;20160;-75
2024/02/28 23:32:59;;;;;;;37.20;11.77;;;;;;;;;;10431202;28;20370;-75
2024/02/28 23:38:05;;;;;;;40.05;11.52;;;;;;;;;;10445713;28;20394;-74
2024/02/28 23:43:07;;;;;;;36.90;11.27;;;;;;;;;;10429527;28;20056;-75
2024/02/28 23:48:11;;;;;;;40.13;12.93;;;;;;;;;;10434871;28;20044;-76
2024/02/28 23:53:15;;;;;;;39.72;12.80;;;;;;;;;;10425525;28;20168;-76
2024/02/28 23:58:18;;;;;;;34.80;10.63;;;;;;;;;;10429720;28;20056;-75
